sensor_id;sensor_type;location;lat;lon;timestamp;temperature;humidity
15717;DHT22;7960;50.908;4.204;2023-02-15T00:01:48;7.90;99.90
15717;DHT22;7960;50.908;4.204;2023-02-15T00:04:17;7.90;99.90
15717;DHT22;7960;50.908;4.204;2023-02-15T00:06:44;8.00;99.90
15717;DHT22;7960;50.908;4.204;2023-02-15T00:09:12;8.00;99.90
15717;DHT22;7960;50.908;4.204;2023-02-15T00:11:39;7.90;99.90
15717;DHT22;7960;50.908;4.204;2023-02-15T00:14:06;7.90;99.90
15717;DHT22;7960;50.908;4.204;2023-02-15T00:16:34;7.80;99.90
15717;DHT22;7960;50.908;4.204;2023-02-15T00:19:02;7.50;99.90
15717;DHT22;7960;50.908;4.204;2023-02-15T00:21:30;7.50;99.90
15717;DHT22;7960;50.908;4.204;2023-02-15T00:23:58;7.60;99.90
15717;DHT22;7960;50.908;4.204;2023-02-15T00:26:25;7.70;99.90
15717;DHT22;7960;50.908;4.204;2023-02-15T00:28:52;7.60;99.90
15717;DHT22;7960;50.908;4.204;2023-02-15T00:31:20;7.40;99.90
15717;DHT22;7960;50.908;4.204;2023-02-15T00:33:47;7.30;99.90
15717;DHT22;7960;50.908;4.204;2023-02-15T00:36:15;7.30;99.90
15717;DHT22;7960;50.908;4.204;2023-02-15T00:38:42;7.40;99.90
15717;DHT22;7960;50.908;4.204;2023-02-15T00:41:09;7.60;99.90
15717;DHT22;7960;50.908;4.204;2023-02-15T00:43:37;7.40;99.90
15717;DHT22;7960;50.908;4.204;2023-02-15T00:46:04;7.30;99.90
15717;DHT22;7960;50.908;4.204;2023-02-15T00:48:32;7.40;99.90
15717;DHT22;7960;50.908;4.204;2023-02-15T00:50:59;7.50;99.90
15717;DHT22;7960;50.908;4.204;2023-02-15T00:53:28;7.60;99.90
15717;DHT22;7960;50.908;4.204;2023-02-15T00:55:56;7.50;99.90
15717;DHT22;7960;50.908;4.204;2023-02-15T00:58:22;7.50;99.90
15717;DHT22;7960;50.908;4.204;2023-02-15T01:00:50;7.50;99.90
15717;DHT22;7960;50.908;4.204;2023-02-15T01:03:18;7.60;99.90
15717;DHT22;7960;50.908;4.204;2023-02-15T01:05:47;7.70;99.90
15717;DHT22;7960;50.908;4.204;2023-02-15T01:08:14;7.60;99.90
15717;DHT22;7960;50.908;4.204;2023-02-15T01:10:42;7.50;99.90
15717;DHT22;7960;50.908;4.204;2023-02-15T01:13:13;7.30;99.90
15717;DHT22;7960;50.908;4.204;2023-02-15T01:15:39;7.30;99.90
15717;DHT22;7960;50.908;4.204;2023-02-15T01:18:06;7.20;99.90
15717;DHT22;7960;50.908;4.204;2023-02-15T01:20:35;7.30;99.90
15717;DHT22;7960;50.908;4.204;2023-02-15T01:23:04;7.40;99.90
15717;DHT22;7960;50.908;4.204;2023-02-15T01:25:34;7.30;99.90
15717;DHT22;7960;50.908;4.204;2023-02-15T01:28:03;7.30;99.90
15717;DHT22;7960;50.908;4.204;2023-02-15T01:30:30;7.10;99.90
15717;DHT22;7960;50.908;4.204;2023-02-15T01:32:57;7.00;99.90
15717;DHT22;7960;50.908;4.204;2023-02-15T01:35:23;7.10;99.90
15717;DHT22;7960;50.908;4.204;2023-02-15T01:37:50;7.20;99.90
15717;DHT22;7960;50.908;4.204;2023-02-15T01:40:18;7.30;99.90
15717;DHT22;7960;50.908;4.204;2023-02-15T01:42:45;7.10;99.90
15717;DHT22;7960;50.908;4.204;2023-02-15T01:45:21;7.20;99.90
15717;DHT22;7960;50.908;4.204;2023-02-15T01:47:52;7.30;99.90
15717;DHT22;7960;50.908;4.204;2023-02-15T01:50:25;7.20;99.90
15717;DHT22;7960;50.908;4.204;2023-02-15T01:52:57;7.30;99.90
15717;DHT22;7960;50.908;4.204;2023-02-15T01:55:29;7.20;99.90
15717;DHT22;7960;50.908;4.204;2023-02-15T01:57:56;7.20;99.90
15717;DHT22;7960;50.908;4.204;2023-02-15T02:00:25;7.20;99.90
15717;DHT22;7960;50.908;4.204;2023-02-15T02:02:55;7.10;99.90
15717;DHT22;7960;50.908;4.204;2023-02-15T02:05:23;7.00;99.90
15717;DHT22;7960;50.908;4.204;2023-02-15T02:07:52;6.90;99.90
15717;DHT22;7960;50.908;4.204;2023-02-15T02:10:22;7.00;99.90
15717;DHT22;7960;50.908;4.204;2023-02-15T02:12:52;6.90;99.90
15717;DHT22;7960;50.908;4.204;2023-02-15T02:15:29;7.00;99.90
15717;DHT22;7960;50.908;4.204;2023-02-15T02:18:09;7.00;99.90
15717;DHT22;7960;50.908;4.204;2023-02-15T02:20:52;7.00;99.90
15717;DHT22;7960;50.908;4.204;2023-02-15T02:23:32;6.90;99.90
15717;DHT22;7960;50.908;4.204;2023-02-15T02:26:22;6.80;99.90
15717;DHT22;7960;50.908;4.204;2023-02-15T02:32:34;6.60;99.90
15717;DHT22;7960;50.908;4.204;2023-02-15T02:35:10;6.70;99.90
15717;DHT22;7960;50.908;4.204;2023-02-15T02:37:45;6.90;99.90
15717;DHT22;7960;50.908;4.204;2023-02-15T02:40:19;6.90;99.90
15717;DHT22;7960;50.908;4.204;2023-02-15T02:42:52;7.00;99.90
15717;DHT22;7960;50.908;4.204;2023-02-15T02:45:30;6.90;99.90
15717;DHT22;7960;50.908;4.204;2023-02-15T02:48:00;6.60;99.90
15717;DHT22;7960;50.908;4.204;2023-02-15T02:50:31;6.60;99.90
15717;DHT22;7960;50.908;4.204;2023-02-15T02:52:58;6.70;99.90
15717;DHT22;7960;50.908;4.204;2023-02-15T02:55:28;6.80;99.90
15717;DHT22;7960;50.908;4.204;2023-02-15T03:00:45;6.90;99.90
15717;DHT22;7960;50.908;4.204;2023-02-15T03:03:15;6.80;99.90
15717;DHT22;7960;50.908;4.204;2023-02-15T03:05:47;6.60;99.90
15717;DHT22;7960;50.908;4.204;2023-02-15T03:08:16;6.40;99.90
15717;DHT22;7960;50.908;4.204;2023-02-15T03:10:47;6.40;99.90
15717;DHT22;7960;50.908;4.204;2023-02-15T03:13:15;6.20;99.90
15717;DHT22;7960;50.908;4.204;2023-02-15T03:15:44;6.20;99.90
15717;DHT22;7960;50.908;4.204;2023-02-15T03:18:32;6.30;99.90
15717;DHT22;7960;50.908;4.204;2023-02-15T03:21:03;6.40;99.90
15717;DHT22;7960;50.908;4.204;2023-02-15T03:23:31;6.30;99.90
15717;DHT22;7960;50.908;4.204;2023-02-15T03:26:01;6.20;99.90
15717;DHT22;7960;50.908;4.204;2023-02-15T03:28:32;6.30;99.90
15717;DHT22;7960;50.908;4.204;2023-02-15T03:31:02;6.10;99.90
15717;DHT22;7960;50.908;4.204;2023-02-15T03:33:32;6.20;99.90
15717;DHT22;7960;50.908;4.204;2023-02-15T03:36:06;6.10;99.90
15717;DHT22;7960;50.908;4.204;2023-02-15T03:38:43;6.00;99.90
15717;DHT22;7960;50.908;4.204;2023-02-15T03:41:11;6.10;99.90
15717;DHT22;7960;50.908;4.204;2023-02-15T03:43:45;6.10;99.90
15717;DHT22;7960;50.908;4.204;2023-02-15T03:46:20;6.10;99.90
15717;DHT22;7960;50.908;4.204;2023-02-15T03:48:52;6.10;99.90
15717;DHT22;7960;50.908;4.204;2023-02-15T03:51:23;6.00;99.90
15717;DHT22;7960;50.908;4.204;2023-02-15T03:54:02;6.00;99.90
15717;DHT22;7960;50.908;4.204;2023-02-15T03:56:30;6.00;99.90
15717;DHT22;7960;50.908;4.204;2023-02-15T03:58:57;6.00;99.90
15717;DHT22;7960;50.908;4.204;2023-02-15T04:01:47;6.00;99.90
15717;DHT22;7960;50.908;4.204;2023-02-15T04:04:26;6.00;99.90
15717;DHT22;7960;50.908;4.204;2023-02-15T04:06:56;6.00;99.90
15717;DHT22;7960;50.908;4.204;2023-02-15T04:09:23;6.00;99.90
15717;DHT22;7960;50.908;4.204;2023-02-15T04:12:07;6.00;99.90
15717;DHT22;7960;50.908;4.204;2023-02-15T04:14:34;6.00;99.90
15717;DHT22;7960;50.908;4.204;2023-02-15T04:17:18;5.90;99.90
15717;DHT22;7960;50.908;4.204;2023-02-15T04:19:45;5.90;99.90
15717;DHT22;7960;50.908;4.204;2023-02-15T04:22:31;6.10;99.90
15717;DHT22;7960;50.908;4.204;2023-02-15T04:25:15;6.30;99.90
15717;DHT22;7960;50.908;4.204;2023-02-15T04:27:44;6.30;99.90
15717;DHT22;7960;50.908;4.204;2023-02-15T04:30:13;6.30;99.90
15717;DHT22;7960;50.908;4.204;2023-02-15T04:32:40;5.80;99.90
15717;DHT22;7960;50.908;4.204;2023-02-15T04:35:07;5.80;99.90
15717;DHT22;7960;50.908;4.204;2023-02-15T04:37:36;5.80;99.90
15717;DHT22;7960;50.908;4.204;2023-02-15T04:40:05;5.80;99.90
15717;DHT22;7960;50.908;4.204;2023-02-15T04:42:33;5.90;99.90
15717;DHT22;7960;50.908;4.204;2023-02-15T04:44:59;6.00;99.90
15717;DHT22;7960;50.908;4.204;2023-02-15T04:47:26;6.00;99.90
15717;DHT22;7960;50.908;4.204;2023-02-15T04:49:53;6.10;99.90
15717;DHT22;7960;50.908;4.204;2023-02-15T04:52:20;6.10;99.90
15717;DHT22;7960;50.908;4.204;2023-02-15T04:54:48;5.90;99.90
15717;DHT22;7960;50.908;4.204;2023-02-15T04:57:15;5.60;99.90
15717;DHT22;7960;50.908;4.204;2023-02-15T04:59:42;5.80;99.90
15717;DHT22;7960;50.908;4.204;2023-02-15T05:02:09;6.00;99.90
15717;DHT22;7960;50.908;4.204;2023-02-15T05:04:35;6.00;99.90
15717;DHT22;7960;50.908;4.204;2023-02-15T05:07:02;6.10;99.90
15717;DHT22;7960;50.908;4.204;2023-02-15T05:09:29;6.10;99.90
15717;DHT22;7960;50.908;4.204;2023-02-15T05:11:57;6.10;99.90
15717;DHT22;7960;50.908;4.204;2023-02-15T05:14:24;6.00;99.90
15717;DHT22;7960;50.908;4.204;2023-02-15T05:16:51;6.00;99.90
15717;DHT22;7960;50.908;4.204;2023-02-15T05:19:19;6.00;99.90
15717;DHT22;7960;50.908;4.204;2023-02-15T05:21:46;6.00;99.90
15717;DHT22;7960;50.908;4.204;2023-02-15T05:24:13;5.90;99.90
15717;DHT22;7960;50.908;4.204;2023-02-15T05:26:59;5.90;99.90
15717;DHT22;7960;50.908;4.204;2023-02-15T05:29:43;5.60;99.90
15717;DHT22;7960;50.908;4.204;2023-02-15T05:32:15;5.30;99.90
15717;DHT22;7960;50.908;4.204;2023-02-15T05:34:42;5.30;99.90
15717;DHT22;7960;50.908;4.204;2023-02-15T05:37:09;5.20;99.90
15717;DHT22;7960;50.908;4.204;2023-02-15T05:39:36;4.90;99.90
15717;DHT22;7960;50.908;4.204;2023-02-15T05:42:04;4.80;99.90
15717;DHT22;7960;50.908;4.204;2023-02-15T05:44:31;4.90;99.90
15717;DHT22;7960;50.908;4.204;2023-02-15T05:46:58;5.10;99.90
15717;DHT22;7960;50.908;4.204;2023-02-15T05:49:24;5.20;99.90
15717;DHT22;7960;50.908;4.204;2023-02-15T05:51:51;5.20;99.90
15717;DHT22;7960;50.908;4.204;2023-02-15T05:54:18;5.30;99.90
15717;DHT22;7960;50.908;4.204;2023-02-15T05:56:45;5.50;99.90
15717;DHT22;7960;50.908;4.204;2023-02-15T05:59:13;5.50;99.90
15717;DHT22;7960;50.908;4.204;2023-02-15T06:01:40;5.60;99.90
15717;DHT22;7960;50.908;4.204;2023-02-15T06:04:07;5.60;99.90
15717;DHT22;7960;50.908;4.204;2023-02-15T06:06:34;5.40;99.90
15717;DHT22;7960;50.908;4.204;2023-02-15T06:09:01;5.30;99.90
15717;DHT22;7960;50.908;4.204;2023-02-15T06:11:27;5.10;99.90
15717;DHT22;7960;50.908;4.204;2023-02-15T06:13:54;5.10;99.90
15717;DHT22;7960;50.908;4.204;2023-02-15T06:16:22;5.30;99.90
15717;DHT22;7960;50.908;4.204;2023-02-15T06:18:49;5.10;99.90
15717;DHT22;7960;50.908;4.204;2023-02-15T06:21:16;5.30;99.90
15717;DHT22;7960;50.908;4.204;2023-02-15T06:23:43;5.30;99.90
15717;DHT22;7960;50.908;4.204;2023-02-15T06:26:10;5.00;99.90
15717;DHT22;7960;50.908;4.204;2023-02-15T06:28:36;5.00;99.90
15717;DHT22;7960;50.908;4.204;2023-02-15T06:31:03;5.00;99.90
15717;DHT22;7960;50.908;4.204;2023-02-15T06:33:32;5.00;99.90
15717;DHT22;7960;50.908;4.204;2023-02-15T06:35:59;5.00;99.90
15717;DHT22;7960;50.908;4.204;2023-02-15T06:38:27;5.00;99.90
15717;DHT22;7960;50.908;4.204;2023-02-15T06:40:54;4.90;99.90
15717;DHT22;7960;50.908;4.204;2023-02-15T06:43:20;5.00;99.90
15717;DHT22;7960;50.908;4.204;2023-02-15T06:45:47;4.90;99.90
15717;DHT22;7960;50.908;4.204;2023-02-15T06:48:14;4.80;99.90
15717;DHT22;7960;50.908;4.204;2023-02-15T06:50:42;4.60;99.90
15717;DHT22;7960;50.908;4.204;2023-02-15T06:53:09;4.40;99.90
15717;DHT22;7960;50.908;4.204;2023-02-15T06:55:36;4.40;99.90
15717;DHT22;7960;50.908;4.204;2023-02-15T06:58:03;4.30;99.90
15717;DHT22;7960;50.908;4.204;2023-02-15T07:00:30;4.40;99.90
15717;DHT22;7960;50.908;4.204;2023-02-15T07:02:58;4.40;99.90
15717;DHT22;7960;50.908;4.204;2023-02-15T07:05:25;4.40;99.90
15717;DHT22;7960;50.908;4.204;2023-02-15T07:07:57;4.50;99.90
15717;DHT22;7960;50.908;4.204;2023-02-15T07:10:24;4.40;99.90
15717;DHT22;7960;50.908;4.204;2023-02-15T07:12:51;4.60;99.90
15717;DHT22;7960;50.908;4.204;2023-02-15T07:15:18;4.80;99.90
15717;DHT22;7960;50.908;4.204;2023-02-15T07:17:46;4.90;99.90
15717;DHT22;7960;50.908;4.204;2023-02-15T07:20:15;5.00;99.90
15717;DHT22;7960;50.908;4.204;2023-02-15T07:22:43;5.00;99.90
15717;DHT22;7960;50.908;4.204;2023-02-15T07:25:13;5.00;99.90
15717;DHT22;7960;50.908;4.204;2023-02-15T07:27:41;5.10;99.90
15717;DHT22;7960;50.908;4.204;2023-02-15T07:30:11;5.20;99.90
15717;DHT22;7960;50.908;4.204;2023-02-15T07:32:39;5.20;99.90
15717;DHT22;7960;50.908;4.204;2023-02-15T07:35:26;5.20;99.90
15717;DHT22;7960;50.908;4.204;2023-02-15T07:37:54;5.20;99.90
15717;DHT22;7960;50.908;4.204;2023-02-15T07:40:22;5.30;99.90
15717;DHT22;7960;50.908;4.204;2023-02-15T07:42:49;5.30;99.90
15717;DHT22;7960;50.908;4.204;2023-02-15T07:45:18;5.20;99.90
15717;DHT22;7960;50.908;4.204;2023-02-15T07:47:45;5.20;99.90
15717;DHT22;7960;50.908;4.204;2023-02-15T07:50:12;5.20;99.90
15717;DHT22;7960;50.908;4.204;2023-02-15T07:52:39;5.10;99.90
15717;DHT22;7960;50.908;4.204;2023-02-15T07:55:07;5.10;99.90
15717;DHT22;7960;50.908;4.204;2023-02-15T07:57:35;5.40;99.90
15717;DHT22;7960;50.908;4.204;2023-02-15T08:00:03;5.50;99.90
15717;DHT22;7960;50.908;4.204;2023-02-15T08:02:31;5.60;99.90
15717;DHT22;7960;50.908;4.204;2023-02-15T08:05:03;5.70;99.90
15717;DHT22;7960;50.908;4.204;2023-02-15T08:07:32;5.70;99.90
15717;DHT22;7960;50.908;4.204;2023-02-15T08:10:00;5.70;99.90
15717;DHT22;7960;50.908;4.204;2023-02-15T08:12:27;5.80;99.90
15717;DHT22;7960;50.908;4.204;2023-02-15T08:14:57;5.80;99.90
15717;DHT22;7960;50.908;4.204;2023-02-15T08:17:24;5.90;99.90
15717;DHT22;7960;50.908;4.204;2023-02-15T08:19:53;5.90;99.90
15717;DHT22;7960;50.908;4.204;2023-02-15T08:22:20;5.80;99.90
15717;DHT22;7960;50.908;4.204;2023-02-15T08:24:53;6.00;99.90
15717;DHT22;7960;50.908;4.204;2023-02-15T08:27:29;6.00;99.90
15717;DHT22;7960;50.908;4.204;2023-02-15T08:29:57;6.00;99.90
15717;DHT22;7960;50.908;4.204;2023-02-15T08:32:24;6.10;99.90
15717;DHT22;7960;50.908;4.204;2023-02-15T08:34:50;6.10;99.90
15717;DHT22;7960;50.908;4.204;2023-02-15T08:37:18;6.20;99.90
15717;DHT22;7960;50.908;4.204;2023-02-15T08:39:44;6.20;99.90
15717;DHT22;7960;50.908;4.204;2023-02-15T08:42:11;6.20;99.90
15717;DHT22;7960;50.908;4.204;2023-02-15T08:44:39;6.30;99.90
15717;DHT22;7960;50.908;4.204;2023-02-15T08:47:07;6.30;99.90
15717;DHT22;7960;50.908;4.204;2023-02-15T08:49:41;6.30;99.90
15717;DHT22;7960;50.908;4.204;2023-02-15T08:52:08;6.30;99.90
15717;DHT22;7960;50.908;4.204;2023-02-15T08:54:35;6.30;99.90
15717;DHT22;7960;50.908;4.204;2023-02-15T08:57:04;6.40;99.90
15717;DHT22;7960;50.908;4.204;2023-02-15T08:59:33;6.40;99.90
15717;DHT22;7960;50.908;4.204;2023-02-15T09:02:01;6.50;99.90
15717;DHT22;7960;50.908;4.204;2023-02-15T09:04:29;6.50;99.90
15717;DHT22;7960;50.908;4.204;2023-02-15T09:06:56;6.50;99.90
15717;DHT22;7960;50.908;4.204;2023-02-15T09:09:23;6.70;99.90
15717;DHT22;7960;50.908;4.204;2023-02-15T09:11:50;6.80;99.90
15717;DHT22;7960;50.908;4.204;2023-02-15T09:14:20;7.10;99.90
15717;DHT22;7960;50.908;4.204;2023-02-15T09:16:49;7.30;99.90
15717;DHT22;7960;50.908;4.204;2023-02-15T09:19:18;7.40;99.90
15717;DHT22;7960;50.908;4.204;2023-02-15T09:21:49;7.50;99.90
15717;DHT22;7960;50.908;4.204;2023-02-15T09:24:17;7.60;99.90
15717;DHT22;7960;50.908;4.204;2023-02-15T09:26:46;7.70;99.90
15717;DHT22;7960;50.908;4.204;2023-02-15T09:29:14;7.70;99.90
15717;DHT22;7960;50.908;4.204;2023-02-15T09:31:42;7.70;99.90
15717;DHT22;7960;50.908;4.204;2023-02-15T09:34:10;7.70;99.90
15717;DHT22;7960;50.908;4.204;2023-02-15T09:36:38;7.80;99.90
15717;DHT22;7960;50.908;4.204;2023-02-15T09:39:09;7.80;99.90
15717;DHT22;7960;50.908;4.204;2023-02-15T09:41:54;7.80;99.90
15717;DHT22;7960;50.908;4.204;2023-02-15T09:44:34;7.80;99.90
15717;DHT22;7960;50.908;4.204;2023-02-15T09:47:22;8.00;99.90
15717;DHT22;7960;50.908;4.204;2023-02-15T09:49:58;8.30;99.90
15717;DHT22;7960;50.908;4.204;2023-02-15T09:52:48;8.30;99.90
15717;DHT22;7960;50.908;4.204;2023-02-15T09:55:28;8.50;99.90
15717;DHT22;7960;50.908;4.204;2023-02-15T09:58:06;8.50;99.90
15717;DHT22;7960;50.908;4.204;2023-02-15T10:00:40;8.80;99.90
15717;DHT22;7960;50.908;4.204;2023-02-15T10:03:17;8.90;99.90
15717;DHT22;7960;50.908;4.204;2023-02-15T10:06:01;8.90;99.90
15717;DHT22;7960;50.908;4.204;2023-02-15T10:08:51;9.10;99.90
15717;DHT22;7960;50.908;4.204;2023-02-15T10:11:27;9.10;99.90
15717;DHT22;7960;50.908;4.204;2023-02-15T10:17:18;9.30;99.90
15717;DHT22;7960;50.908;4.204;2023-02-15T10:19:59;9.50;99.90
15717;DHT22;7960;50.908;4.204;2023-02-15T10:22:37;9.70;99.90
15717;DHT22;7960;50.908;4.204;2023-02-15T10:25:16;10.00;99.90
15717;DHT22;7960;50.908;4.204;2023-02-15T10:27:49;10.10;99.90
15717;DHT22;7960;50.908;4.204;2023-02-15T10:30:20;10.20;99.90
15717;DHT22;7960;50.908;4.204;2023-02-15T10:32:57;10.40;99.90
15717;DHT22;7960;50.908;4.204;2023-02-15T10:35:33;10.50;99.90
15717;DHT22;7960;50.908;4.204;2023-02-15T10:38:14;10.50;99.90
15717;DHT22;7960;50.908;4.204;2023-02-15T10:40:51;10.20;99.90
15717;DHT22;7960;50.908;4.204;2023-02-15T10:43:47;10.20;99.90
15717;DHT22;7960;50.908;4.204;2023-02-15T10:46:25;10.10;99.90
15717;DHT22;7960;50.908;4.204;2023-02-15T10:49:14;10.00;99.90
15717;DHT22;7960;50.908;4.204;2023-02-15T10:51:55;10.00;99.90
15717;DHT22;7960;50.908;4.204;2023-02-15T10:54:32;10.10;99.90
15717;DHT22;7960;50.908;4.204;2023-02-15T10:57:04;9.90;99.90
15717;DHT22;7960;50.908;4.204;2023-02-15T10:59:45;10.10;99.90
15717;DHT22;7960;50.908;4.204;2023-02-15T11:02:24;10.10;99.90
15717;DHT22;7960;50.908;4.204;2023-02-15T11:04:55;10.30;99.90
15717;DHT22;7960;50.908;4.204;2023-02-15T11:07:26;10.30;99.90
15717;DHT22;7960;50.908;4.204;2023-02-15T11:10:01;10.20;99.90
15717;DHT22;7960;50.908;4.204;2023-02-15T11:12:32;10.10;99.90
15717;DHT22;7960;50.908;4.204;2023-02-15T11:15:04;10.00;99.90
15717;DHT22;7960;50.908;4.204;2023-02-15T11:17:41;10.10;99.90
15717;DHT22;7960;50.908;4.204;2023-02-15T11:20:18;10.10;99.90
15717;DHT22;7960;50.908;4.204;2023-02-15T11:22:49;10.20;99.90
15717;DHT22;7960;50.908;4.204;2023-02-15T11:25:22;10.30;99.90
15717;DHT22;7960;50.908;4.204;2023-02-15T11:27:50;10.30;99.90
15717;DHT22;7960;50.908;4.204;2023-02-15T11:30:23;10.20;99.90
15717;DHT22;7960;50.908;4.204;2023-02-15T11:32:52;10.20;99.90
15717;DHT22;7960;50.908;4.204;2023-02-15T11:35:24;10.20;99.90
15717;DHT22;7960;50.908;4.204;2023-02-15T11:37:57;10.20;99.90
15717;DHT22;7960;50.908;4.204;2023-02-15T11:40:29;10.30;99.90
15717;DHT22;7960;50.908;4.204;2023-02-15T11:43:00;10.40;99.90
15717;DHT22;7960;50.908;4.204;2023-02-15T11:45:31;10.50;99.90
15717;DHT22;7960;50.908;4.204;2023-02-15T11:47:58;10.60;99.90
15717;DHT22;7960;50.908;4.204;2023-02-15T11:50:27;10.80;99.90
15717;DHT22;7960;50.908;4.204;2023-02-15T11:52:59;10.80;99.90
15717;DHT22;7960;50.908;4.204;2023-02-15T11:55:27;10.90;99.90
15717;DHT22;7960;50.908;4.204;2023-02-15T11:57:59;10.90;99.90
15717;DHT22;7960;50.908;4.204;2023-02-15T12:00:35;11.00;99.90
15717;DHT22;7960;50.908;4.204;2023-02-15T12:03:11;10.90;99.90
15717;DHT22;7960;50.908;4.204;2023-02-15T12:05:42;11.30;99.90
15717;DHT22;7960;50.908;4.204;2023-02-15T12:08:15;11.50;99.90
15717;DHT22;7960;50.908;4.204;2023-02-15T12:10:57;11.50;99.90
15717;DHT22;7960;50.908;4.204;2023-02-15T12:13:25;11.40;99.90
15717;DHT22;7960;50.908;4.204;2023-02-15T12:15:56;11.50;99.90
15717;DHT22;7960;50.908;4.204;2023-02-15T12:18:42;11.60;99.90
15717;DHT22;7960;50.908;4.204;2023-02-15T12:21:11;11.80;99.90
15717;DHT22;7960;50.908;4.204;2023-02-15T12:23:47;11.70;99.90
15717;DHT22;7960;50.908;4.204;2023-02-15T12:26:15;11.90;99.90
15717;DHT22;7960;50.908;4.204;2023-02-15T12:28:50;12.20;99.90
15717;DHT22;7960;50.908;4.204;2023-02-15T12:31:24;12.40;99.90
15717;DHT22;7960;50.908;4.204;2023-02-15T12:33:54;12.60;99.70
15717;DHT22;7960;50.908;4.204;2023-02-15T12:36:24;12.80;99.70
15717;DHT22;7960;50.908;4.204;2023-02-15T12:39:05;12.90;99.60
15717;DHT22;7960;50.908;4.204;2023-02-15T12:41:32;12.90;99.20
15717;DHT22;7960;50.908;4.204;2023-02-15T12:44:05;12.90;99.00
15717;DHT22;7960;50.908;4.204;2023-02-15T12:46:34;13.00;99.20
15717;DHT22;7960;50.908;4.204;2023-02-15T12:49:16;13.20;98.70
15717;DHT22;7960;50.908;4.204;2023-02-15T12:51:45;13.20;98.60
15717;DHT22;7960;50.908;4.204;2023-02-15T12:54:25;13.30;98.40
15717;DHT22;7960;50.908;4.204;2023-02-15T12:56:54;13.30;98.30
15717;DHT22;7960;50.908;4.204;2023-02-15T12:59:23;13.10;98.50
15717;DHT22;7960;50.908;4.204;2023-02-15T13:01:53;13.40;98.40
15717;DHT22;7960;50.908;4.204;2023-02-15T13:04:23;13.40;98.30
15717;DHT22;7960;50.908;4.204;2023-02-15T13:06:54;13.50;98.30
15717;DHT22;7960;50.908;4.204;2023-02-15T13:09:26;13.40;98.20
15717;DHT22;7960;50.908;4.204;2023-02-15T13:12:10;13.40;98.20
15717;DHT22;7960;50.908;4.204;2023-02-15T13:14:41;13.30;98.20
15717;DHT22;7960;50.908;4.204;2023-02-15T13:17:12;13.30;98.20
15717;DHT22;7960;50.908;4.204;2023-02-15T13:19:43;13.40;98.10
15717;DHT22;7960;50.908;4.204;2023-02-15T13:22:14;13.70;98.20
15717;DHT22;7960;50.908;4.204;2023-02-15T13:24:45;13.60;97.70
15717;DHT22;7960;50.908;4.204;2023-02-15T13:27:14;13.60;97.80
15717;DHT22;7960;50.908;4.204;2023-02-15T13:29:45;14.00;97.70
15717;DHT22;7960;50.908;4.204;2023-02-15T13:32:25;14.00;97.30
15717;DHT22;7960;50.908;4.204;2023-02-15T13:34:56;14.20;97.30
15717;DHT22;7960;50.908;4.204;2023-02-15T13:37:37;14.10;97.00
15717;DHT22;7960;50.908;4.204;2023-02-15T13:40:14;14.30;97.10
15717;DHT22;7960;50.908;4.204;2023-02-15T13:42:47;14.60;96.30
15717;DHT22;7960;50.908;4.204;2023-02-15T13:45:32;14.90;96.30
15717;DHT22;7960;50.908;4.204;2023-02-15T13:48:10;14.80;95.70
15717;DHT22;7960;50.908;4.204;2023-02-15T13:50:53;14.70;95.50
15717;DHT22;7960;50.908;4.204;2023-02-15T13:53:48;14.80;95.80
15717;DHT22;7960;50.908;4.204;2023-02-15T13:56:26;15.00;95.40
15717;DHT22;7960;50.908;4.204;2023-02-15T13:59:07;15.00;95.20
15717;DHT22;7960;50.908;4.204;2023-02-15T14:01:44;14.70;95.00
15717;DHT22;7960;50.908;4.204;2023-02-15T14:04:31;14.30;95.60
15717;DHT22;7960;50.908;4.204;2023-02-15T14:10:25;14.00;96.20
15717;DHT22;7960;50.908;4.204;2023-02-15T14:16:03;14.00;96.90
15717;DHT22;7960;50.908;4.204;2023-02-15T14:18:41;13.90;96.90
15717;DHT22;7960;50.908;4.204;2023-02-15T14:21:15;13.90;96.80
15717;DHT22;7960;50.908;4.204;2023-02-15T14:23:57;13.90;97.30
15717;DHT22;7960;50.908;4.204;2023-02-15T14:26:33;13.90;97.00
15717;DHT22;7960;50.908;4.204;2023-02-15T14:29:12;13.90;96.70
15717;DHT22;7960;50.908;4.204;2023-02-15T14:31:43;14.00;96.60
15717;DHT22;7960;50.908;4.204;2023-02-15T14:34:19;14.10;96.30
15717;DHT22;7960;50.908;4.204;2023-02-15T14:36:50;14.50;96.30
15717;DHT22;7960;50.908;4.204;2023-02-15T14:39:26;14.70;96.00
15717;DHT22;7960;50.908;4.204;2023-02-15T14:42:18;14.90;95.90
15717;DHT22;7960;50.908;4.204;2023-02-15T14:44:48;15.00;95.50
15717;DHT22;7960;50.908;4.204;2023-02-15T14:47:19;15.10;95.40
15717;DHT22;7960;50.908;4.204;2023-02-15T14:49:47;14.90;95.10
15717;DHT22;7960;50.908;4.204;2023-02-15T14:52:15;14.80;95.30
15717;DHT22;7960;50.908;4.204;2023-02-15T14:55:00;14.60;95.30
15717;DHT22;7960;50.908;4.204;2023-02-15T14:57:30;14.60;95.40
15717;DHT22;7960;50.908;4.204;2023-02-15T15:00:00;14.80;95.50
15717;DHT22;7960;50.908;4.204;2023-02-15T15:02:43;14.50;95.50
15717;DHT22;7960;50.908;4.204;2023-02-15T15:05:17;14.40;95.80
15717;DHT22;7960;50.908;4.204;2023-02-15T15:07:47;14.10;96.10
15717;DHT22;7960;50.908;4.204;2023-02-15T15:10:37;14.00;96.40
15717;DHT22;7960;50.908;4.204;2023-02-15T15:13:51;13.90;96.70
15717;DHT22;7960;50.908;4.204;2023-02-15T15:16:47;13.80;96.80
15717;DHT22;7960;50.908;4.204;2023-02-15T15:22:31;13.50;96.20
15717;DHT22;7960;50.908;4.204;2023-02-15T15:25:00;13.30;96.30
15717;DHT22;7960;50.908;4.204;2023-02-15T15:34:23;13.20;96.80
15717;DHT22;7960;50.908;4.204;2023-02-15T15:37:21;13.20;96.90
15717;DHT22;7960;50.908;4.204;2023-02-15T15:43:47;13.00;96.90
15717;DHT22;7960;50.908;4.204;2023-02-15T15:46:52;12.80;97.10
15717;DHT22;7960;50.908;4.204;2023-02-15T15:49:29;12.70;97.40
15717;DHT22;7960;50.908;4.204;2023-02-15T15:52:00;12.60;97.60
15717;DHT22;7960;50.908;4.204;2023-02-15T15:54:27;12.70;97.80
15717;DHT22;7960;50.908;4.204;2023-02-15T15:56:56;12.80;97.90
15717;DHT22;7960;50.908;4.204;2023-02-15T15:59:25;12.70;98.00
15717;DHT22;7960;50.908;4.204;2023-02-15T16:02:04;12.60;98.30
15717;DHT22;7960;50.908;4.204;2023-02-15T16:04:34;12.50;98.60
15717;DHT22;7960;50.908;4.204;2023-02-15T16:07:18;12.40;98.60
15717;DHT22;7960;50.908;4.204;2023-02-15T16:09:54;12.40;98.80
15717;DHT22;7960;50.908;4.204;2023-02-15T16:12:21;12.40;98.90
15717;DHT22;7960;50.908;4.204;2023-02-15T16:14:49;12.30;99.10
15717;DHT22;7960;50.908;4.204;2023-02-15T16:17:21;12.10;99.40
15717;DHT22;7960;50.908;4.204;2023-02-15T16:19:51;12.10;99.80
15717;DHT22;7960;50.908;4.204;2023-02-15T16:22:20;12.00;99.90
15717;DHT22;7960;50.908;4.204;2023-02-15T16:25:12;11.90;99.90
15717;DHT22;7960;50.908;4.204;2023-02-15T16:27:41;11.90;99.90
15717;DHT22;7960;50.908;4.204;2023-02-15T16:30:18;11.80;99.90
15717;DHT22;7960;50.908;4.204;2023-02-15T16:32:45;11.60;99.90
15717;DHT22;7960;50.908;4.204;2023-02-15T16:35:16;11.60;99.90
15717;DHT22;7960;50.908;4.204;2023-02-15T16:37:44;11.60;99.90
15717;DHT22;7960;50.908;4.204;2023-02-15T16:40:27;11.60;99.90
15717;DHT22;7960;50.908;4.204;2023-02-15T16:42:57;11.40;99.90
15717;DHT22;7960;50.908;4.204;2023-02-15T16:45:27;11.30;99.90
15717;DHT22;7960;50.908;4.204;2023-02-15T16:47:57;11.30;99.90
15717;DHT22;7960;50.908;4.204;2023-02-15T16:50:32;11.10;99.90
15717;DHT22;7960;50.908;4.204;2023-02-15T16:53:00;11.00;99.90
15717;DHT22;7960;50.908;4.204;2023-02-15T16:55:30;11.00;99.90